Time;durP1;ratioP1;P1;durP2;ratioP2;P2;SDS_P1;SDS_P2;PMS_P1;PMS_P2;Temp;Humidity;BMP_temperature;BMP_pressure;BME280_temperature;BME280_humidity;BME280_pressure;Samples;Min_cycle;Max_cycle;Signal;HPM_P1;HPM_P2
2023/06/16 00:00:11;;;;;;;1.05;0.90;;;14.80;44.90;;;;;;5092664;27;20606;-79
2023/06/16 00:02:41;;;;;;;1.60;1.30;;;14.80;99.90;;;;;;5099079;27;20043;-79
2023/06/16 00:05:12;;;;;;;0.95;0.80;;;14.80;99.90;;;;;;5130444;27;20051;-79
2023/06/16 00:07:38;;;;;;;1.13;1.00;;;14.80;99.90;;;;;;5095776;28;20051;-79
2023/06/16 00:10:06;;;;;;;0.95;0.85;;;14.80;1.00;;;;;;5140629;27;20046;-79
2023/06/16 00:12:33;;;;;;;1.17;0.60;;;14.80;1.00;;;;;;5095439;28;20359;-79
2023/06/16 00:14:58;;;;;;;0.70;0.70;;;14.80;1.00;;;;;;5106679;27;20126;-79
2023/06/16 00:17:26;;;;;;;0.82;0.73;;;14.80;1.00;;;;;;5115666;27;20153;-79
2023/06/16 00:19:57;;;;;;;0.77;0.77;;;14.70;25.70;;;;;;5098350;27;20035;-79
2023/06/16 00:22:26;;;;;;;0.70;0.70;;;14.70;52.20;;;;;;5098584;27;20043;-79
2023/06/16 00:24:53;;;;;;;1.08;0.77;;;14.70;72.00;;;;;;5114973;27;20080;-79
2023/06/16 00:27:24;;;;;;;0.80;0.70;;;14.70;76.00;;;;;;5114755;27;20447;-79
2023/06/16 00:29:50;;;;;;;0.63;0.60;;;14.70;60.00;;;;;;5098917;27;20046;-79
2023/06/16 00:32:16;;;;;;;0.60;0.57;;;14.70;15.30;;;;;;5085211;28;20036;-79
2023/06/16 00:34:42;;;;;;;;;;;14.70;1.00;;;;;;5104032;27;20039;-79
2023/06/16 00:37:08;;;;;;;0.60;0.55;;;14.70;1.00;;;;;;5133765;27;20392;-79
2023/06/16 00:39:33;;;;;;;0.88;0.70;;;14.70;1.00;;;;;;5109687;27;20072;-79
2023/06/16 00:41:59;;;;;;;0.47;0.40;;;14.70;1.00;;;;;;5130813;27;20036;-79
2023/06/16 00:44:25;;;;;;;0.70;0.70;;;14.70;1.00;;;;;;5114471;27;20122;-79
2023/06/16 00:46:51;;;;;;;0.50;0.50;;;14.70;99.90;;;;;;5114184;27;20126;-79
2023/06/16 00:49:17;;;;;;;0.85;0.70;;;14.70;99.90;;;;;;5066844;28;20052;-79
2023/06/16 00:51:43;;;;;;;;;;;14.70;99.90;;;;;;5059280;28;20348;-79
2023/06/16 00:54:12;;;;;;;1.00;0.70;;;14.70;99.90;;;;;;5070386;28;20360;-79
2023/06/16 00:56:41;;;;;;;1.17;0.90;;;14.80;99.90;;;;;;5089624;28;20035;-79
2023/06/16 00:59:07;;;;;;;0.80;0.80;;;14.80;99.90;;;;;;5080719;28;20123;-79
2023/06/16 01:01:34;;;;;;;1.05;0.80;;;14.80;99.90;;;;;;5097396;28;20104;-79
2023/06/16 01:04:01;;;;;;;1.00;0.82;;;14.70;96.40;;;;;;5073815;28;20415;-80
2023/06/16 01:06:41;;;;;;;1.08;0.90;;;14.60;99.90;;;;;;5077604;28;20036;-79
2023/06/16 01:09:30;;;;;;;1.10;0.90;;;14.50;99.90;;;;;;5077403;28;20559;-79
2023/06/16 01:12:20;;;;;;;0.80;0.70;;;14.60;99.90;;;;;;5060103;28;20040;-79
2023/06/16 01:15:05;;;;;;;1.10;1.00;;;14.60;99.90;;;;;;5070235;28;20040;-79
2023/06/16 01:17:35;;;;;;;0.88;0.80;;;14.50;99.90;;;;;;5088228;28;20044;-79
2023/06/16 01:20:18;;;;;;;1.35;0.93;;;14.50;99.90;;;;;;5078918;28;20083;-79
2023/06/16 01:23:03;;;;;;;1.50;1.30;;;14.40;99.90;;;;;;5078465;28;20513;-79
2023/06/16 01:25:31;;;;;;;1.88;1.20;;;14.40;1.00;;;;;;5090019;28;20063;-79
2023/06/16 01:28:00;;;;;;;1.33;1.02;;;14.40;99.90;;;;;;5082940;28;20119;-79
2023/06/16 01:30:30;;;;;;;1.95;1.10;;;14.30;99.90;;;;;;5057881;28;20036;-79
2023/06/16 01:32:57;;;;;;;0.70;0.70;;;14.30;99.90;;;;;;5076859;28;20032;-79
2023/06/16 01:35:24;;;;;;;0.93;0.80;;;14.20;99.90;;;;;;5056007;28;20376;-79
2023/06/16 01:37:55;;;;;;;1.00;0.90;;;14.10;99.90;;;;;;5082980;28;20030;-79
2023/06/16 01:40:21;;;;;;;1.45;1.10;;;14.10;37.20;;;;;;5070261;28;20468;-79
2023/06/16 01:42:48;;;;;;;2.17;1.23;;;14.00;99.90;;;;;;5083217;28;20127;-79
2023/06/16 01:45:16;;;;;;;1.55;1.27;;;14.00;99.90;;;;;;5059201;28;20429;-79
2023/06/16 01:47:43;;;;;;;1.30;1.10;;;14.00;99.90;;;;;;5088828;28;20052;-79
2023/06/16 01:50:13;;;;;;;1.15;1.05;;;14.00;99.90;;;;;;5088460;28;20052;-79
2023/06/16 01:52:39;;;;;;;1.23;1.10;;;14.00;99.90;;;;;;5090056;28;20122;-79
2023/06/16 01:55:06;;;;;;;1.05;0.85;;;13.90;99.90;;;;;;5089802;28;20131;-79
2023/06/16 01:57:31;;;;;;;1.20;1.10;;;13.90;99.90;;;;;;5088132;28;20040;-79
2023/06/16 02:00:10;;;;;;;0.80;0.80;;;13.80;99.90;;;;;;5056849;28;20049;-79
2023/06/16 02:02:37;;;;;;;0.80;0.80;;;13.70;99.90;;;;;;5073119;28;20131;-79
2023/06/16 02:05:05;;;;;;;1.15;1.00;;;13.70;99.90;;;;;;5089723;28;20131;-79
2023/06/16 02:07:37;;;;;;;0.80;0.80;;;13.70;99.90;;;;;;5073018;28;20052;-79
2023/06/16 02:10:04;;;;;;;1.00;0.90;;;13.60;99.90;;;;;;5072820;28;20055;-79
2023/06/16 02:12:31;;;;;;;0.80;0.80;;;13.60;99.90;;;;;;5089803;28;20061;-79
2023/06/16 02:14:57;;;;;;;0.57;0.57;;;13.60;99.90;;;;;;5066643;28;20047;-79
2023/06/16 02:17:26;;;;;;;1.02;0.93;;;13.60;99.90;;;;;;5072729;28;20048;-79
2023/06/16 02:19:53;;;;;;;1.27;1.10;;;13.60;99.90;;;;;;5072940;28;20043;-79
2023/06/16 02:22:18;;;;;;;1.35;1.13;;;13.60;99.90;;;;;;5072307;28;20043;-79
2023/06/16 02:24:44;;;;;;;1.13;1.00;;;13.50;99.90;;;;;;5089444;28;20044;-79
2023/06/16 02:27:13;;;;;;;1.00;0.90;;;13.50;99.90;;;;;;5050500;28;20086;-79
2023/06/16 02:29:40;;;;;;;0.80;0.80;;;13.40;99.90;;;;;;5069530;28;20043;-79
2023/06/16 02:32:06;;;;;;;1.00;0.90;;;13.40;99.90;;;;;;5086471;28;20480;-79
2023/06/16 02:34:32;;;;;;;0.95;0.85;;;13.30;99.90;;;;;;5089236;28;20115;-79
2023/06/16 02:36:58;;;;;;;1.10;0.85;;;13.30;99.90;;;;;;5089391;28;20483;-79
2023/06/16 02:39:24;;;;;;;1.00;0.90;;;13.20;99.90;;;;;;5089426;28;20040;-79
2023/06/16 02:41:50;;;;;;;0.80;0.80;;;13.20;99.90;;;;;;5074077;28;20086;-79
2023/06/16 02:44:16;;;;;;;1.00;0.80;;;13.10;99.90;;;;;;5072176;28;20578;-79
2023/06/16 02:46:42;;;;;;;1.00;0.90;;;13.10;99.90;;;;;;5071822;28;20690;-79
2023/06/16 02:49:07;;;;;;;1.10;0.80;;;13.00;99.90;;;;;;5088720;28;20060;-79
2023/06/16 02:51:34;;;;;;;0.95;0.85;;;13.00;99.90;;;;;;5088484;28;20090;-79
2023/06/16 02:54:00;;;;;;;1.10;1.00;;;13.00;99.90;;;;;;5092101;28;20441;-79
2023/06/16 02:56:28;;;;;;;;;;;13.00;99.90;;;;;;5093062;28;20088;-79
2023/06/16 02:58:55;;;;;;;1.23;0.80;;;13.00;99.90;;;;;;5080165;28;19915;-79
2023/06/16 03:01:21;;;;;;;1.17;0.85;;;13.00;99.90;;;;;;5109636;28;20031;-79
2023/06/16 03:03:48;;;;;;;1.20;1.10;;;13.10;99.90;;;;;;5089020;28;20044;-79
2023/06/16 03:06:16;;;;;;;2.08;1.23;;;13.10;99.90;;;;;;5047066;28;20044;-79
2023/06/16 03:08:42;;;;;;;2.65;2.20;;;13.20;99.90;;;;;;5083396;28;20044;-79
2023/06/16 03:11:07;;;;;;;3.60;2.15;;;13.30;99.90;;;;;;5089034;28;20050;-79
2023/06/16 03:13:33;;;;;;;2.15;1.85;;;13.40;99.90;;;;;;5096610;28;20434;-79
2023/06/16 03:16:00;;;;;;;2.20;2.00;;;13.40;99.90;;;;;;5036338;28;20098;-79
2023/06/16 03:18:27;;;;;;;1.58;1.45;;;13.40;99.90;;;;;;5088532;28;20065;-79
2023/06/16 03:20:53;;;;;;;1.60;1.30;;;13.30;99.90;;;;;;5107789;28;20079;-79
2023/06/16 03:23:19;;;;;;;2.40;2.20;;;13.30;99.90;;;;;;5065590;28;20479;-79
2023/06/16 03:25:46;;;;;;;2.38;2.17;;;13.30;99.90;;;;;;5100043;28;20044;-79
2023/06/16 03:28:13;;;;;;;2.55;1.90;;;13.40;99.90;;;;;;5096267;28;20448;-79
2023/06/16 03:30:40;;;;;;;2.22;1.80;;;13.40;99.90;;;;;;5108945;28;20123;-79
2023/06/16 03:33:06;;;;;;;1.45;1.35;;;13.40;99.90;;;;;;5103286;28;20406;-79
2023/06/16 03:35:32;;;;;;;1.60;1.30;;;13.40;99.90;;;;;;5103765;28;20098;-79
2023/06/16 03:37:58;;;;;;;1.25;1.10;;;13.30;99.90;;;;;;5101768;28;20051;-79
2023/06/16 03:40:23;;;;;;;0.95;0.90;;;13.20;99.90;;;;;;5073015;28;20048;-78
2023/06/16 03:42:49;;;;;;;1.20;1.05;;;13.20;99.90;;;;;;5089227;28;20044;-78
2023/06/16 03:45:15;;;;;;;1.10;1.00;;;13.20;99.90;;;;;;5074967;28;20045;-78
2023/06/16 03:47:41;;;;;;;1.00;0.90;;;13.10;99.90;;;;;;5075646;28;20050;-79
2023/06/16 03:50:07;;;;;;;1.20;1.02;;;13.10;99.90;;;;;;5117278;28;20042;-79
2023/06/16 03:52:33;;;;;;;1.63;1.20;;;13.10;99.90;;;;;;5092620;28;20047;-79
2023/06/16 03:55:00;;;;;;;1.40;1.10;;;13.10;99.90;;;;;;5110021;28;20056;-79
2023/06/16 03:57:25;;;;;;;1.00;0.90;;;13.10;99.90;;;;;;5112151;28;20049;-78
2023/06/16 03:59:51;;;;;;;0.98;0.80;;;13.10;99.90;;;;;;5096575;28;20390;-78
2023/06/16 04:02:17;;;;;;;1.00;0.80;;;13.10;99.90;;;;;;5107941;27;20045;-78
2023/06/16 04:04:45;;;;;;;1.10;1.00;;;13.10;99.90;;;;;;5097463;27;20039;-78
2023/06/16 04:07:11;;;;;;;1.50;1.00;;;13.20;99.90;;;;;;5108225;27;20453;-79
2023/06/16 04:09:38;;;;;;;0.70;0.70;;;13.20;99.90;;;;;;5113555;27;20410;-79
2023/06/16 04:12:04;;;;;;;1.33;1.00;;;13.20;99.90;;;;;;5119004;27;20043;-79
2023/06/16 04:14:30;;;;;;;1.10;1.00;;;13.30;99.90;;;;;;5112929;27;20074;-80
2023/06/16 04:16:56;;;;;;;1.55;1.45;;;13.30;99.90;;;;;;5098071;27;20067;-79
2023/06/16 04:19:22;;;;;;;2.05;1.85;;;13.40;99.90;;;;;;5080933;27;20047;-80
2023/06/16 04:21:48;;;;;;;2.30;1.92;;;13.50;99.90;;;;;;5098551;27;20187;-81
2023/06/16 04:24:14;;;;;;;1.90;1.65;;;13.60;99.90;;;;;;5097477;27;20039;-81
2023/06/16 04:26:43;;;;;;;1.63;1.52;;;13.70;99.90;;;;;;5115342;27;20046;-81
2023/06/16 04:29:14;;;;;;;1.70;1.45;;;13.70;99.90;;;;;;5094829;27;20499;-81
2023/06/16 04:31:42;;;;;;;2.10;1.65;;;13.80;99.90;;;;;;5140881;27;20035;-81
2023/06/16 04:34:12;;;;;;;3.03;2.65;;;13.80;99.90;;;;;;5100580;27;20041;-81
2023/06/16 04:36:41;;;;;;;3.00;2.70;;;14.00;99.90;;;;;;5114091;27;20061;-81
2023/06/16 04:39:08;;;;;;;2.60;2.38;;;14.00;99.90;;;;;;5091203;28;20035;-81
2023/06/16 04:41:35;;;;;;;3.30;2.90;;;14.00;99.90;;;;;;5103533;28;20047;-81
2023/06/16 04:44:03;;;;;;;3.63;3.00;;;14.00;99.90;;;;;;5106630;27;20497;-80
2023/06/16 04:46:29;;;;;;;3.60;2.80;;;14.00;99.90;;;;;;5097726;27;20434;-80
2023/06/16 04:48:55;;;;;;;4.13;3.72;;;14.10;99.90;;;;;;5129121;27;20090;-79
2023/06/16 04:51:21;;;;;;;3.25;2.95;;;14.20;99.90;;;;;;5113345;27;20075;-77
2023/06/16 04:53:47;;;;;;;2.42;2.00;;;14.30;99.90;;;;;;5113562;27;20419;-77
2023/06/16 04:56:13;;;;;;;3.78;2.97;;;14.30;99.90;;;;;;5114464;27;20454;-77
2023/06/16 04:58:39;;;;;;;2.95;2.60;;;14.40;99.90;;;;;;5078454;27;20053;-78
2023/06/16 05:01:05;;;;;;;2.92;2.60;;;14.50;99.90;;;;;;5097308;27;20042;-78
2023/06/16 05:03:31;;;;;;;2.47;2.17;;;14.60;99.90;;;;;;5138732;27;20093;-78
2023/06/16 05:05:57;;;;;;;2.78;2.35;;;14.70;99.90;;;;;;5097660;27;20046;-78
2023/06/16 05:08:22;;;;;;;4.55;3.45;;;14.80;99.90;;;;;;5110973;27;20035;-78
2023/06/16 05:10:48;;;;;;;4.07;3.67;;;14.90;99.90;;;;;;5093072;27;20416;-75
2023/06/16 05:13:14;;;;;;;7.20;6.00;;;15.00;99.90;;;;;;5108067;27;20543;-79
2023/06/16 05:15:39;;;;;;;4.60;3.67;;;15.20;99.90;;;;;;5114264;27;20042;-77
2023/06/16 05:18:05;;;;;;;5.20;3.90;;;15.20;99.90;;;;;;5112013;27;20043;-78
2023/06/16 05:20:32;;;;;;;3.25;2.70;;;15.40;99.90;;;;;;5138977;27;20053;-78
2023/06/16 05:22:58;;;;;;;4.35;3.78;;;15.40;99.90;;;;;;5077979;27;20039;-76
2023/06/16 05:25:24;;;;;;;5.72;4.70;;;15.50;99.90;;;;;;5111592;27;20133;-76
2023/06/16 05:27:50;;;;;;;6.55;4.78;;;15.60;99.90;;;;;;5096642;27;20556;-76
2023/06/16 05:30:16;;;;;;;5.78;4.80;;;15.70;99.90;;;;;;5111550;27;20092;-76
2023/06/16 05:32:42;;;;;;;6.97;5.95;;;15.70;99.90;;;;;;5139772;27;20035;-76
2023/06/16 05:35:08;;;;;;;3.90;3.50;;;15.80;99.90;;;;;;5096007;27;20038;-75
2023/06/16 05:37:33;;;;;;;4.95;4.10;;;15.90;99.90;;;;;;5110375;27;20482;-76
2023/06/16 05:39:59;;;;;;;4.65;3.45;;;15.90;99.90;;;;;;5136425;27;20031;-77
2023/06/16 05:42:25;;;;;;;6.28;4.70;;;16.00;99.90;;;;;;5111229;27;20123;-76
2023/06/16 05:44:51;;;;;;;5.72;4.28;;;16.20;99.90;;;;;;5111602;27;20111;-76
2023/06/16 05:47:17;;;;;;;3.72;3.13;;;16.30;99.90;;;;;;5092604;27;20423;-76
2023/06/16 05:49:43;;;;;;;2.92;2.70;;;16.40;99.90;;;;;;5087685;28;20047;-75
2023/06/16 05:52:09;;;;;;;4.53;4.13;;;16.40;99.90;;;;;;5108764;28;20035;-75
2023/06/16 05:54:37;;;;;;;4.53;3.42;;;16.60;99.90;;;;;;5099032;28;20186;-74
2023/06/16 05:57:04;;;;;;;5.40;4.40;;;16.70;99.90;;;;;;5098908;28;20035;-75
2023/06/16 05:59:30;;;;;;;4.85;4.40;;;16.70;99.90;;;;;;5057508;28;20166;-74
2023/06/16 06:01:56;;;;;;;3.47;3.17;;;16.80;99.90;;;;;;5076360;28;20142;-75
2023/06/16 06:04:30;;;;;;;3.55;2.90;;;17.00;99.90;;;;;;5090427;28;20153;-75
2023/06/16 06:06:56;;;;;;;4.43;3.28;;;17.30;99.90;;;;;;5090621;28;20087;-75
2023/06/16 06:09:22;;;;;;;3.85;2.83;;;17.40;99.90;;;;;;5065031;28;21908;-75
2023/06/16 06:11:48;;;;;;;3.55;3.25;;;17.50;99.90;;;;;;5075683;28;20530;-75
2023/06/16 06:14:14;;;;;;;4.10;3.30;;;17.50;99.90;;;;;;5062714;28;20075;-75
2023/06/16 06:16:40;;;;;;;4.45;3.22;;;17.50;99.90;;;;;;5087513;28;20066;-76
2023/06/16 06:19:06;;;;;;;3.67;3.38;;;17.50;99.90;;;;;;5071319;28;20044;-76
2023/06/16 06:21:36;;;;;;;3.40;3.10;;;17.50;99.90;;;;;;5078322;28;20048;-79
2023/06/16 06:24:02;;;;;;;4.00;3.60;;;17.50;99.90;;;;;;5087877;28;20102;-74
2023/06/16 06:26:28;;;;;;;6.53;5.20;;;17.60;99.90;;;;;;5088583;28;20075;-76
2023/06/16 06:28:54;;;;;;;4.15;3.40;;;17.60;99.90;;;;;;5072508;28;20032;-76
2023/06/16 06:31:20;;;;;;;;;;;17.70;99.90;;;;;;5089980;28;20106;-76
2023/06/16 06:33:46;;;;;;;4.10;3.63;;;17.70;99.90;;;;;;5088659;28;19920;-76
2023/06/16 06:36:20;;;;;;;;;;;17.80;59.10;;;;;;5098290;28;20040;-76
2023/06/16 06:38:47;;;;;;;3.83;3.42;;;17.90;97.70;;;;;;5110164;28;19934;-76
2023/06/16 06:41:13;;;;;;;6.63;5.13;;;18.00;29.90;;;;;;5110174;28;20048;-75
2023/06/16 06:43:38;;;;;;;;;;;18.00;1.00;;;;;;5110478;28;20040;-74
2023/06/16 06:46:04;;;;;;;4.60;4.20;;;18.10;1.00;;;;;;5075713;28;19931;-76
2023/06/16 06:48:30;;;;;;;4.38;3.85;;;18.10;99.90;;;;;;5060755;28;20056;-76
2023/06/16 06:50:56;;;;;;;5.32;4.57;;;18.20;99.90;;;;;;5096114;28;20043;-76
2023/06/16 06:53:21;;;;;;;;;;;18.30;99.90;;;;;;5094605;28;20475;-76
2023/06/16 06:55:47;;;;;;;4.40;4.00;;;18.30;99.90;;;;;;5089539;28;20351;-75
2023/06/16 06:58:13;;;;;;;;;;;18.40;99.90;;;;;;5056354;28;20341;-76
2023/06/16 07:00:39;;;;;;;4.22;3.65;;;18.50;71.80;;;;;;5079916;28;19916;-76
2023/06/16 07:03:05;;;;;;;;;;;18.60;1.00;;;;;;5060620;28;20040;-76
2023/06/16 07:05:33;;;;;;;4.47;4.05;;;18.60;1.00;;;;;;5061132;28;20055;-76
2023/06/16 07:08:00;;;;;;;3.92;3.17;;;18.70;99.90;;;;;;5065980;28;20554;-76
2023/06/16 07:10:32;;;;;;;3.00;2.75;;;18.90;99.90;;;;;;5077816;28;20473;-76
2023/06/16 07:12:57;;;;;;;7.20;4.43;;;19.00;99.90;;;;;;5070412;28;20039;-76
2023/06/16 07:15:23;;;;;;;;;;;18.90;99.90;;;;;;5093717;28;20039;-77
2023/06/16 07:17:49;;;;;;;4.72;3.75;;;19.10;1.00;;;;;;5089144;28;20415;-76
2023/06/16 07:20:14;;;;;;;;;;;19.20;99.90;;;;;;5063865;28;20593;-76
2023/06/16 07:22:42;;;;;;;4.43;3.60;;;19.40;99.90;;;;;;5068606;28;19916;-76
2023/06/16 07:25:08;;;;;;;5.30;4.10;;;19.40;1.00;;;;;;5062715;28;20487;-76
2023/06/16 07:27:34;;;;;;;5.25;3.80;;;19.50;99.90;;;;;;5078034;28;20080;-76
2023/06/16 07:30:00;;;;;;;;;;;19.60;99.90;;;;;;5084230;28;20125;-76
2023/06/16 07:32:26;;;;;;;4.85;3.92;;;19.70;99.90;;;;;;5072177;28;19916;-76
2023/06/16 07:34:52;;;;;;;;;;;19.60;53.70;;;;;;5089232;28;20040;-76
2023/06/16 07:37:18;;;;;;;4.55;3.70;;;19.70;99.90;;;;;;5075015;28;20021;-76
2023/06/16 07:39:44;;;;;;;;;;;19.80;99.90;;;;;;5085322;28;20044;-75
2023/06/16 07:42:10;;;;;;;5.35;2.90;;;19.90;99.90;;;;;;5085326;28;19916;-76
2023/06/16 07:44:35;;;;;;;;;;;20.10;99.90;;;;;;5092760;28;20521;-75
2023/06/16 07:47:01;;;;;;;4.72;3.17;;;20.30;90.80;;;;;;5074885;28;20022;-75
2023/06/16 07:49:29;;;;;;;;;;;20.30;1.00;;;;;;5092274;28;20442;-75
2023/06/16 07:51:54;;;;;;;5.47;4.03;;;20.50;1.00;;;;;;5092651;28;19921;-75
2023/06/16 07:54:20;;;;;;;;;;;20.30;99.90;;;;;;5092646;28;20355;-75
2023/06/16 07:56:47;;;;;;;3.67;2.70;;;20.50;99.90;;;;;;5092244;28;19926;-75
2023/06/16 07:59:12;;;;;;;4.20;2.90;;;20.70;99.90;;;;;;5092518;28;20097;-75
2023/06/16 08:01:38;;;;;;;;;;;20.70;99.90;;;;;;5075907;28;20044;-75
2023/06/16 08:04:04;;;;;;;3.08;2.55;;;20.70;99.90;;;;;;5092413;28;20371;-75
2023/06/16 08:06:30;;;;;;;;;;;20.80;35.90;;;;;;5092832;28;20055;-76
2023/06/16 08:08:56;;;;;;;3.75;2.75;;;20.90;1.00;;;;;;5092343;28;19928;-76
2023/06/16 08:11:21;;;;;;;2.80;2.20;;;20.80;99.90;;;;;;5092305;28;20036;-76
2023/06/16 08:13:47;;;;;;;3.00;2.10;;;20.80;99.90;;;;;;5092201;28;20048;-76
2023/06/16 08:16:13;;;;;;;;;;;21.00;99.90;;;;;;5092709;28;20048;-76
2023/06/16 08:18:38;;;;;;;3.67;2.30;;;20.90;63.20;;;;;;5092049;28;19923;-76
2023/06/16 08:21:06;;;;;;;2.78;1.85;;;20.90;37.00;;;;;;5092131;28;20032;-76
2023/06/16 08:23:32;;;;;;;2.42;1.77;;;21.00;1.00;;;;;;5091905;28;20123;-77
2023/06/16 08:25:59;;;;;;;3.08;2.03;;;21.20;22.70;;;;;;5092199;28;20178;-75
2023/06/16 08:28:25;;;;;;;2.22;1.80;;;21.10;1.00;;;;;;5075135;28;20105;-76
2023/06/16 08:30:51;;;;;;;3.80;1.98;;;21.10;1.00;;;;;;5075339;28;20515;-77
2023/06/16 08:33:17;;;;;;;3.75;1.70;;;21.10;1.00;;;;;;5091942;28;20032;-76
2023/06/16 08:35:43;;;;;;;2.38;1.60;;;21.20;1.00;;;;;;5092045;28;20046;-77
2023/06/16 08:38:08;;;;;;;2.15;1.50;;;21.40;1.00;;;;;;5091914;28;20055;-77
2023/06/16 08:40:35;;;;;;;2.30;1.90;;;21.80;1.00;;;;;;5075434;28;20040;-77
2023/06/16 08:43:05;;;;;;;3.72;2.20;;;21.90;99.90;;;;;;5091829;28;20437;-76
2023/06/16 08:45:30;;;;;;;3.17;2.25;;;22.10;99.90;;;;;;5091604;28;20074;-76
2023/06/16 08:47:57;;;;;;;2.80;1.70;;;21.90;99.90;;;;;;5097076;27;20051;-76
2023/06/16 08:50:23;;;;;;;2.05;1.70;;;21.90;99.90;;;;;;5115447;27;20191;-77
2023/06/16 08:52:52;;;;;;;1.88;1.67;;;22.00;99.90;;;;;;5078963;28;20047;-77
2023/06/16 08:55:19;;;;;;;2.08;1.70;;;22.20;99.90;;;;;;5099835;27;20370;-77
2023/06/16 08:57:47;;;;;;;2.10;1.70;;;22.30;1.00;;;;;;5114013;27;20043;-76
2023/06/16 09:00:14;;;;;;;1.95;1.58;;;22.30;99.90;;;;;;5113780;27;20135;-76
2023/06/16 09:02:41;;;;;;;2.63;1.60;;;22.50;1.00;;;;;;5115061;27;20082;-76
2023/06/16 09:05:11;;;;;;;1.98;1.60;;;22.70;1.00;;;;;;5114737;27;20043;-76
2023/06/16 09:07:39;;;;;;;3.13;1.67;;;22.60;1.00;;;;;;5132016;27;20138;-75
2023/06/16 09:10:06;;;;;;;2.90;1.77;;;22.40;99.90;;;;;;5115002;27;20092;-76
2023/06/16 09:12:31;;;;;;;2.65;1.42;;;22.40;1.00;;;;;;5097797;27;20080;-75
2023/06/16 09:14:58;;;;;;;2.78;1.73;;;22.40;1.00;;;;;;5097664;27;20047;-75
2023/06/16 09:17:27;;;;;;;3.00;1.98;;;22.40;1.00;;;;;;5097447;27;20046;-76
2023/06/16 09:19:53;;;;;;;3.20;2.00;;;22.20;1.00;;;;;;5114544;27;20039;-76
2023/06/16 09:22:23;;;;;;;2.38;1.67;;;22.20;1.00;;;;;;5114358;27;20122;-76
2023/06/16 09:24:59;;;;;;;1.70;1.60;;;22.30;1.00;;;;;;5097430;27;20127;-76
2023/06/16 09:27:50;;;;;;;2.78;1.90;;;22.10;1.00;;;;;;5114464;27;20051;-77
2023/06/16 09:30:20;;;;;;;3.72;1.70;;;22.30;1.00;;;;;;5114511;27;20104;-77
2023/06/16 09:32:47;;;;;;;2.50;1.75;;;22.40;1.00;;;;;;5114662;27;20128;-77
2023/06/16 09:35:22;;;;;;;2.78;1.60;;;22.50;1.00;;;;;;5114377;27;20039;-77
2023/06/16 09:37:50;;;;;;;2.58;2.00;;;22.70;1.00;;;;;;5093806;28;20075;-76
2023/06/16 09:40:17;;;;;;;2.58;1.98;;;22.50;1.00;;;;;;5093986;28;20575;-76
2023/06/16 09:42:44;;;;;;;3.30;1.95;;;22.50;99.90;;;;;;5110819;28;20040;-76
2023/06/16 09:45:15;;;;;;;2.40;1.50;;;22.50;99.90;;;;;;5093969;28;20054;-77
2023/06/16 09:47:46;;;;;;;2.67;1.85;;;22.70;1.00;;;;;;5093460;28;20097;-76
2023/06/16 09:50:13;;;;;;;3.67;1.70;;;22.70;1.00;;;;;;5096054;27;20052;-77
2023/06/16 09:52:41;;;;;;;2.10;1.65;;;22.80;1.00;;;;;;5097063;27;20066;-75
2023/06/16 09:55:08;;;;;;;2.70;1.90;;;22.70;99.90;;;;;;5114038;27;20090;-75
2023/06/16 09:57:33;;;;;;;2.25;1.63;;;22.70;99.90;;;;;;5114069;27;20070;-76
2023/06/16 09:59:59;;;;;;;2.47;1.60;;;22.70;99.90;;;;;;5113698;27;20134;-75
2023/06/16 10:02:27;;;;;;;2.40;1.50;;;22.90;99.90;;;;;;5113991;27;20046;-75
2023/06/16 10:04:57;;;;;;;2.35;1.67;;;22.90;99.90;;;;;;5113752;27;20034;-76
2023/06/16 10:07:24;;;;;;;1.48;1.10;;;23.10;99.90;;;;;;5113869;27;20051;-76
2023/06/16 10:09:51;;;;;;;2.67;1.40;;;23.00;99.90;;;;;;5114267;27;20111;-76
2023/06/16 10:12:20;;;;;;;2.45;1.65;;;23.10;99.90;;;;;;5113879;27;20134;-75
2023/06/16 10:14:47;;;;;;;2.33;1.38;;;23.00;99.90;;;;;;5131959;27;20050;-76
2023/06/16 10:17:14;;;;;;;3.60;1.80;;;23.20;99.90;;;;;;5096922;27;20051;-75
2023/06/16 10:19:48;;;;;;;2.47;1.60;;;23.10;99.90;;;;;;5096425;27;20035;-76
2023/06/16 10:22:15;;;;;;;2.40;1.50;;;23.00;99.90;;;;;;5113173;27;20088;-76
2023/06/16 10:24:42;;;;;;;2.03;1.50;;;23.10;99.90;;;;;;5113279;27;20629;-75
2023/06/16 10:27:10;;;;;;;2.53;1.60;;;23.00;99.90;;;;;;5096938;27;20034;-74
2023/06/16 10:29:37;;;;;;;3.40;1.65;;;23.10;99.90;;;;;;5113501;27;20453;-74
2023/06/16 10:32:07;;;;;;;2.25;1.70;;;23.50;99.90;;;;;;5096703;27;20397;-74
2023/06/16 10:34:34;;;;;;;3.15;1.50;;;23.50;99.90;;;;;;5096730;27;20105;-74
2023/06/16 10:37:01;;;;;;;3.05;1.70;;;23.50;99.90;;;;;;5112867;27;20502;-75
2023/06/16 10:39:27;;;;;;;4.68;1.77;;;23.50;99.90;;;;;;5113430;27;20051;-75
2023/06/16 10:41:57;;;;;;;1.95;1.70;;;23.40;99.90;;;;;;5113545;27;20047;-75
2023/06/16 10:44:27;;;;;;;3.20;1.60;;;23.50;99.90;;;;;;5113071;27;20126;-75
2023/06/16 10:47:08;;;;;;;2.30;1.50;;;23.60;99.90;;;;;;5112799;27;20430;-75
2023/06/16 10:49:51;;;;;;;3.03;1.50;;;23.70;99.90;;;;;;5093878;27;20434;-75
2023/06/16 10:52:18;;;;;;;2.83;1.90;;;23.80;99.90;;;;;;5110419;27;20042;-76
2023/06/16 10:54:51;;;;;;;1.70;1.23;;;23.70;99.90;;;;;;5112617;27;20074;-76
2023/06/16 10:57:16;;;;;;;2.05;1.50;;;23.80;99.90;;;;;;5095770;27;20050;-76
2023/06/16 10:59:54;;;;;;;2.75;1.70;;;23.80;99.90;;;;;;5092276;27;20427;-76
2023/06/16 11:02:23;;;;;;;2.00;1.50;;;23.80;99.90;;;;;;5107640;27;20088;-76
2023/06/16 11:05:12;;;;;;;2.00;1.50;;;23.70;99.90;;;;;;5112678;27;20465;-75
2023/06/16 11:07:41;;;;;;;1.92;1.60;;;23.60;99.90;;;;;;5080448;28;20498;-75
2023/06/16 11:10:15;;;;;;;2.00;1.50;;;23.80;99.90;;;;;;5092807;28;20443;-75
2023/06/16 11:12:41;;;;;;;2.60;1.40;;;23.70;99.90;;;;;;5111695;28;20058;-75
2023/06/16 11:15:07;;;;;;;2.00;1.60;;;23.90;99.90;;;;;;5137533;27;20079;-75
2023/06/16 11:17:33;;;;;;;1.63;1.27;;;23.80;99.90;;;;;;5094974;28;20088;-75
2023/06/16 11:20:01;;;;;;;2.35;1.55;;;24.00;99.90;;;;;;5112324;28;20039;-75
2023/06/16 11:22:31;;;;;;;3.08;1.40;;;24.00;99.90;;;;;;5112469;28;20122;-75
2023/06/16 11:24:57;;;;;;;2.00;1.80;;;24.00;99.90;;;;;;5112401;28;20043;-75
2023/06/16 11:27:25;;;;;;;1.55;1.45;;;23.80;99.90;;;;;;5112629;28;20046;-75
2023/06/16 11:29:53;;;;;;;2.83;1.63;;;24.20;99.90;;;;;;5112737;28;20039;-75
2023/06/16 11:32:34;;;;;;;1.83;1.20;;;24.60;99.90;;;;;;5112166;28;20118;-76
2023/06/16 11:35:01;;;;;;;1.33;1.20;;;24.80;99.90;;;;;;5112585;28;20051;-75
2023/06/16 11:37:54;;;;;;;2.10;1.40;;;25.00;99.90;;;;;;5112657;28;20760;-75
2023/06/16 11:40:23;;;;;;;1.88;1.55;;;24.90;99.90;;;;;;5112844;28;20086;-75
2023/06/16 11:43:03;;;;;;;2.10;1.48;;;24.80;99.90;;;;;;5112777;28;20070;-75
2023/06/16 11:45:31;;;;;;;2.97;1.55;;;24.90;99.90;;;;;;5096415;28;20456;-76
2023/06/16 11:48:02;;;;;;;1.77;1.40;;;25.00;99.90;;;;;;5112529;28;20470;-76
2023/06/16 11:50:28;;;;;;;1.95;1.50;;;25.10;99.90;;;;;;5112620;28;20416;-75
2023/06/16 11:52:55;;;;;;;2.30;1.60;;;24.90;99.90;;;;;;5095584;28;20039;-75
2023/06/16 11:55:22;;;;;;;4.10;1.50;;;24.90;99.90;;;;;;5112565;28;20047;-76
2023/06/16 11:57:47;;;;;;;2.17;1.55;;;24.70;99.90;;;;;;5092652;28;20042;-74
2023/06/16 12:00:14;;;;;;;2.22;1.60;;;24.90;99.90;;;;;;5115722;28;20043;-77
2023/06/16 12:02:42;;;;;;;1.77;1.50;;;25.30;99.90;;;;;;5111419;28;20068;-75
2023/06/16 12:05:16;;;;;;;4.63;1.75;;;25.20;99.90;;;;;;5092111;28;20086;-75
2023/06/16 12:07:42;;;;;;;1.80;1.50;;;25.00;99.90;;;;;;5109438;27;20035;-74
2023/06/16 12:10:08;;;;;;;2.00;1.58;;;24.80;99.90;;;;;;5109308;28;20120;-75
2023/06/16 12:12:37;;;;;;;2.92;1.70;;;24.90;99.90;;;;;;5109817;28;20039;-75
2023/06/16 12:15:03;;;;;;;3.15;1.70;;;24.90;99.90;;;;;;5110741;28;20031;-76
2023/06/16 12:17:29;;;;;;;2.78;1.50;;;24.90;99.90;;;;;;5087719;28;20049;-75
2023/06/16 12:19:55;;;;;;;2.47;1.70;;;24.90;99.90;;;;;;5075601;28;20117;-77
2023/06/16 12:22:21;;;;;;;2.88;1.70;;;24.70;99.90;;;;;;5091257;28;20047;-77
2023/06/16 12:24:48;;;;;;;2.58;2.00;;;24.30;99.90;;;;;;5113770;27;20041;-77
2023/06/16 12:27:23;;;;;;;1.73;1.40;;;24.30;99.90;;;;;;5108672;27;20039;-77
2023/06/16 12:29:56;;;;;;;2.03;1.50;;;24.50;99.90;;;;;;5111794;27;20043;-77
2023/06/16 12:32:32;;;;;;;3.85;1.63;;;24.40;99.90;;;;;;5110071;27;20125;-77
2023/06/16 12:34:58;;;;;;;1.92;1.50;;;24.30;99.90;;;;;;5113961;27;20159;-77
2023/06/16 12:37:30;;;;;;;1.90;1.40;;;24.50;99.90;;;;;;5098742;27;20497;-78
2023/06/16 12:40:15;;;;;;;2.00;1.50;;;24.90;99.90;;;;;;5142426;27;20039;-77
2023/06/16 12:42:41;;;;;;;3.47;1.40;;;25.00;99.90;;;;;;5113526;27;20641;-77
2023/06/16 12:45:07;;;;;;;1.85;1.40;;;25.10;99.90;;;;;;5113376;27;20126;-78
2023/06/16 12:47:34;;;;;;;4.43;1.50;;;25.60;99.90;;;;;;5137227;27;20571;-77
2023/06/16 12:50:02;;;;;;;3.58;1.60;;;25.30;99.90;;;;;;5093427;27;20094;-77
2023/06/16 12:52:29;;;;;;;1.95;1.33;;;25.30;99.90;;;;;;5090867;27;20748;-77
2023/06/16 12:54:58;;;;;;;2.47;1.45;;;24.80;99.90;;;;;;5122595;27;20129;-78